createdAt,value
2017-08-24T00:00:26.542Z,0
2017-08-24T00:01:26.498Z,0
2017-08-24T00:02:26.504Z,0
2017-08-24T00:03:26.474Z,0
2017-08-24T00:04:26.439Z,0
2017-08-24T00:05:26.470Z,0
2017-08-24T00:06:26.503Z,0
2017-08-24T00:07:26.472Z,0
2017-08-24T00:08:26.473Z,0
2017-08-24T00:09:26.471Z,0
2017-08-24T00:10:26.471Z,0
2017-08-24T00:11:26.507Z,0
2017-08-24T00:12:26.523Z,0
2017-08-24T00:13:26.550Z,0
2017-08-24T00:15:26.509Z,0
2017-08-24T00:16:26.494Z,0
2017-08-24T00:17:26.513Z,0
2017-08-24T00:18:26.533Z,0
2017-08-24T00:19:26.552Z,0
2017-08-24T00:20:26.554Z,0
2017-08-24T00:21:26.453Z,0
2017-08-24T00:22:26.480Z,0
2017-08-24T00:23:26.456Z,0
2017-08-24T00:24:26.454Z,0
2017-08-24T00:25:26.483Z,0
2017-08-24T00:26:26.516Z,0
2017-08-24T00:27:26.458Z,0
2017-08-24T00:28:26.522Z,0
2017-08-24T00:29:26.517Z,0
2017-08-24T00:30:26.520Z,0
2017-08-24T00:31:26.485Z,0
2017-08-24T00:32:26.466Z,0
2017-08-24T00:33:26.475Z,0
2017-08-24T00:34:26.454Z,0
2017-08-24T00:35:26.451Z,0
2017-08-24T00:36:26.470Z,0
2017-08-24T00:37:26.462Z,0
2017-08-24T00:38:26.544Z,0
2017-08-24T00:39:26.491Z,0
2017-08-24T00:40:26.422Z,0
2017-08-24T00:41:26.468Z,0
2017-08-24T00:42:26.468Z,0
2017-08-24T00:43:26.529Z,0
2017-08-24T00:44:26.525Z,0
2017-08-24T00:45:26.529Z,0
2017-08-24T00:46:26.469Z,0
2017-08-24T00:47:26.534Z,0
2017-08-24T00:48:26.531Z,0
2017-08-24T00:49:26.470Z,0
2017-08-24T00:50:26.528Z,0
2017-08-24T00:51:26.574Z,0
2017-08-24T00:52:26.481Z,0
2017-08-24T00:53:26.566Z,0
2017-08-24T00:54:26.478Z,0
2017-08-24T00:55:26.544Z,0
2017-08-24T00:56:26.554Z,0
2017-08-24T00:57:26.505Z,0
2017-08-24T00:58:26.553Z,0
2017-08-24T00:59:26.485Z,0
2017-08-24T01:00:26.481Z,0
2017-08-24T01:01:26.536Z,0
2017-08-24T01:02:26.503Z,0
2017-08-24T01:03:26.478Z,0
2017-08-24T01:04:26.479Z,0
2017-08-24T01:05:26.540Z,0
2017-08-24T01:06:26.542Z,0
2017-08-24T01:07:26.541Z,0
2017-08-24T01:08:26.544Z,0
2017-08-24T01:09:26.486Z,0
2017-08-24T01:10:26.482Z,0
2017-08-24T01:11:26.519Z,0
2017-08-24T01:12:26.549Z,0
2017-08-24T01:13:26.494Z,0
2017-08-24T01:14:26.491Z,0
2017-08-24T01:15:26.485Z,0
2017-08-24T01:16:26.489Z,0
2017-08-24T01:17:26.517Z,0
2017-08-24T01:18:26.548Z,0
2017-08-24T01:19:26.520Z,0
2017-08-24T01:20:26.489Z,0
2017-08-24T01:21:26.553Z,0
2017-08-24T01:22:26.530Z,0
2017-08-24T01:23:26.593Z,0
2017-08-24T01:24:26.591Z,0
2017-08-24T01:25:26.529Z,0
2017-08-24T01:26:26.534Z,0
2017-08-24T01:27:26.536Z,0
2017-08-24T01:28:26.590Z,0
2017-08-24T01:29:26.565Z,0
2017-08-24T01:30:26.595Z,0
2017-08-24T01:31:26.529Z,0
2017-08-24T01:32:26.519Z,0
2017-08-24T01:33:26.523Z,0
2017-08-24T01:34:26.515Z,0
2017-08-24T01:35:26.523Z,0
2017-08-24T01:36:26.497Z,0
2017-08-24T01:37:26.526Z,0
2017-08-24T01:38:26.559Z,0
2017-08-24T01:39:26.563Z,0
2017-08-24T01:40:26.528Z,0
2017-08-24T01:41:26.576Z,0
2017-08-24T01:42:26.570Z,0
2017-08-24T01:43:26.577Z,0
2017-08-24T01:44:26.583Z,0
2017-08-24T01:45:26.511Z,0
2017-08-24T01:46:26.577Z,0
2017-08-24T01:47:26.543Z,0
2017-08-24T01:48:26.534Z,0
2017-08-24T01:49:26.529Z,0
2017-08-24T01:50:26.549Z,0
2017-08-24T01:51:26.580Z,0
2017-08-24T01:52:26.618Z,0
2017-08-24T01:53:26.599Z,0
2017-08-24T01:54:26.602Z,0
2017-08-24T01:55:26.567Z,0
2017-08-24T01:56:26.552Z,0
2017-08-24T01:57:26.547Z,0
2017-08-24T01:58:26.606Z,0
2017-08-24T01:59:26.515Z,0
2017-08-24T02:00:26.606Z,0
2017-08-24T02:01:26.611Z,0
2017-08-24T02:02:26.524Z,0
2017-08-24T02:03:26.525Z,0
2017-08-24T02:04:26.591Z,0
2017-08-24T02:05:26.544Z,0
2017-08-24T02:06:26.583Z,0
2017-08-24T02:07:26.551Z,0
2017-08-24T02:08:26.612Z,0
2017-08-24T02:09:26.620Z,0
2017-08-24T02:10:26.618Z,0
2017-08-24T02:11:26.528Z,0
2017-08-24T02:12:26.597Z,0
2017-08-24T02:13:26.565Z,0
2017-08-24T02:14:26.554Z,0
2017-08-24T02:15:26.548Z,0
2017-08-24T02:16:26.615Z,0
2017-08-24T02:17:26.597Z,0
2017-08-24T02:18:26.566Z,0
2017-08-24T02:19:26.526Z,0
2017-08-24T02:20:26.529Z,0
2017-08-24T02:21:26.570Z,0
2017-08-24T02:22:26.625Z,0
2017-08-24T02:23:26.627Z,0
2017-08-24T02:24:26.604Z,0
2017-08-24T02:25:26.592Z,0
2017-08-24T02:26:26.630Z,0
2017-08-24T02:27:26.603Z,0
2017-08-24T02:28:26.591Z,0
2017-08-24T02:29:26.608Z,0
2017-08-24T02:30:26.626Z,0
2017-08-24T02:31:26.528Z,0
2017-08-24T02:32:26.592Z,0
2017-08-24T02:33:26.594Z,0
2017-08-24T02:34:26.534Z,0
2017-08-24T02:35:26.535Z,0
2017-08-24T02:36:26.559Z,0
2017-08-24T02:37:26.533Z,0
2017-08-24T02:38:26.562Z,0
2017-08-24T02:39:26.593Z,0
2017-08-24T02:40:26.598Z,0
2017-08-24T02:41:26.600Z,0
2017-08-24T02:42:26.596Z,0
2017-08-24T02:43:26.606Z,0
2017-08-24T02:44:26.598Z,0
2017-08-24T02:45:26.569Z,0
2017-08-24T02:46:26.552Z,0
2017-08-24T02:47:26.613Z,0
2017-08-24T02:48:26.556Z,0
2017-08-24T02:49:26.545Z,0
2017-08-24T02:50:26.546Z,0
2017-08-24T02:51:26.583Z,0
2017-08-24T02:52:26.602Z,0
2017-08-24T02:53:26.610Z,0
2017-08-24T02:54:26.551Z,0
2017-08-24T02:55:26.641Z,0
2017-08-24T02:56:26.553Z,0
2017-08-24T02:57:26.553Z,0
2017-08-24T02:58:26.646Z,0
2017-08-24T02:59:26.551Z,0
2017-08-24T03:00:26.580Z,0
2017-08-24T03:01:26.587Z,0
2017-08-24T03:02:26.646Z,0
2017-08-24T03:03:26.555Z,0
2017-08-24T03:04:26.560Z,0
2017-08-24T03:05:26.619Z,0
2017-08-24T03:06:26.558Z,0
2017-08-24T03:07:26.621Z,0
2017-08-24T03:08:26.557Z,0
2017-08-24T03:09:26.650Z,0
2017-08-24T03:10:26.585Z,0
2017-08-24T03:11:26.554Z,0
2017-08-24T03:12:26.576Z,0
2017-08-24T03:13:26.616Z,0
2017-08-24T03:14:26.582Z,0
2017-08-24T03:15:26.582Z,0
2017-08-24T03:16:26.562Z,0
2017-08-24T03:17:26.561Z,0
2017-08-24T03:18:26.620Z,0
2017-08-24T03:19:26.558Z,0
2017-08-24T03:20:26.582Z,0
2017-08-24T03:21:26.663Z,0
2017-08-24T03:22:26.625Z,0
2017-08-24T03:23:26.634Z,0
2017-08-24T03:24:26.663Z,0
2017-08-24T03:25:26.623Z,0
2017-08-24T03:26:26.572Z,0
2017-08-24T03:27:26.572Z,0
2017-08-24T03:28:26.593Z,0
2017-08-24T03:29:26.572Z,0
2017-08-24T03:30:26.601Z,0
2017-08-24T03:31:26.640Z,0
2017-08-24T03:32:26.640Z,0
2017-08-24T03:33:26.662Z,0
2017-08-24T03:34:26.595Z,0
2017-08-24T03:35:26.600Z,0
2017-08-24T03:36:26.576Z,0
2017-08-24T03:37:26.612Z,0
2017-08-24T03:38:26.613Z,0
2017-08-24T03:39:26.607Z,0
2017-08-24T03:40:26.581Z,0
2017-08-24T03:41:26.633Z,0
2017-08-24T03:42:26.604Z,0
2017-08-24T03:43:26.602Z,0
2017-08-24T03:44:26.601Z,0
2017-08-24T03:45:26.634Z,0
2017-08-24T03:46:26.571Z,0
2017-08-24T03:47:26.608Z,0
2017-08-24T03:48:26.606Z,0
2017-08-24T03:49:26.603Z,0
2017-08-24T03:50:26.579Z,0
2017-08-24T03:51:26.607Z,0
2017-08-24T03:52:26.577Z,0
2017-08-24T03:53:26.581Z,0
2017-08-24T03:54:26.640Z,0
2017-08-24T03:55:26.605Z,0
2017-08-24T03:56:26.582Z,0
2017-08-24T03:57:26.607Z,0
2017-08-24T03:58:26.611Z,0
2017-08-24T03:59:26.661Z,0
2017-08-24T04:00:26.612Z,0
2017-08-24T04:01:26.643Z,0
2017-08-24T04:02:26.687Z,0
2017-08-24T04:03:26.629Z,0
2017-08-24T04:04:26.624Z,0
2017-08-24T04:05:26.617Z,0
2017-08-24T04:06:26.620Z,0
2017-08-24T04:07:26.665Z,0
2017-08-24T04:08:26.591Z,0
2017-08-24T04:09:26.620Z,5
2017-08-24T04:10:26.684Z,5
2017-08-24T04:11:26.636Z,5
2017-08-24T04:12:26.671Z,5
2017-08-24T04:13:26.631Z,11
2017-08-24T04:14:26.631Z,11
2017-08-24T04:15:26.697Z,11
2017-08-24T04:16:26.608Z,11
2017-08-24T04:17:26.699Z,16
2017-08-24T04:18:26.600Z,16
2017-08-24T04:19:26.697Z,16
2017-08-24T04:20:26.702Z,16
2017-08-24T04:21:26.601Z,16
2017-08-24T04:22:26.661Z,22
2017-08-24T04:23:26.632Z,22
2017-08-24T04:24:26.622Z,28
2017-08-24T04:25:26.600Z,28
2017-08-24T04:26:26.673Z,33
2017-08-24T04:27:26.635Z,33
2017-08-24T04:28:26.701Z,39
2017-08-24T04:29:26.697Z,39
2017-08-24T04:30:26.671Z,45
2017-08-24T04:31:26.667Z,50
2017-08-24T04:32:26.677Z,50
2017-08-24T04:33:26.611Z,56
2017-08-24T04:34:26.683Z,56
2017-08-24T04:35:26.611Z,61
2017-08-24T04:36:26.636Z,61
2017-08-24T04:37:26.614Z,67
2017-08-24T04:38:26.636Z,67
2017-08-24T04:39:26.681Z,73
2017-08-24T04:40:26.635Z,78
2017-08-24T04:41:26.609Z,84
2017-08-24T04:42:26.613Z,90
2017-08-24T04:43:26.650Z,95
2017-08-24T04:44:26.612Z,101
2017-08-24T04:45:26.711Z,106
2017-08-24T04:46:26.644Z,112
2017-08-24T04:47:26.680Z,123
2017-08-24T04:48:26.651Z,123
2017-08-24T04:49:26.615Z,123
2017-08-24T04:50:26.677Z,129
2017-08-24T04:51:26.690Z,129
2017-08-24T04:52:26.652Z,135
2017-08-24T04:53:26.639Z,140
2017-08-24T04:54:26.646Z,146
2017-08-24T04:55:26.697Z,151
2017-08-24T04:56:26.694Z,157
2017-08-24T04:57:26.714Z,163
2017-08-24T04:58:26.712Z,168
2017-08-24T04:59:26.627Z,180
2017-08-24T05:00:26.623Z,185
2017-08-24T05:01:26.709Z,191
2017-08-24T05:02:26.660Z,202
2017-08-24T05:03:26.628Z,208
2017-08-24T05:04:26.722Z,213
2017-08-24T05:05:26.679Z,219
2017-08-24T05:06:26.627Z,230
2017-08-24T05:07:26.627Z,236
2017-08-24T05:08:26.701Z,241
2017-08-24T05:09:26.717Z,241
2017-08-24T05:10:26.632Z,225
2017-08-24T05:11:26.696Z,191
2017-08-24T05:12:26.700Z,151
2017-08-24T05:13:26.630Z,135
2017-08-24T05:14:26.724Z,135
2017-08-24T05:15:26.636Z,118
2017-08-24T05:16:26.661Z,112
2017-08-24T05:17:26.728Z,112
2017-08-24T05:18:26.639Z,123
2017-08-24T05:19:26.636Z,135
2017-08-24T05:20:26.635Z,140
2017-08-24T05:21:26.695Z,135
2017-08-24T05:22:26.691Z,135
2017-08-24T05:23:26.657Z,135
2017-08-24T05:24:26.626Z,140
2017-08-24T05:25:26.653Z,157
2017-08-24T05:26:26.658Z,163
2017-08-24T05:27:26.658Z,168
2017-08-24T05:28:26.633Z,185
2017-08-24T05:29:26.712Z,202
2017-08-24T05:30:26.691Z,202
2017-08-24T05:31:26.630Z,202
2017-08-24T05:32:26.695Z,191
2017-08-24T05:33:26.742Z,174
2017-08-24T05:34:26.737Z,168
2017-08-24T05:35:26.697Z,168
2017-08-24T05:36:26.739Z,174
2017-08-24T05:37:26.704Z,174
2017-08-24T05:38:26.738Z,163
2017-08-24T05:39:26.647Z,180
2017-08-24T05:40:26.744Z,196
2017-08-24T05:41:26.702Z,202
2017-08-24T05:42:26.607Z,202
2017-08-24T05:43:26.638Z,213
2017-08-24T05:44:26.636Z,219
2017-08-24T05:45:26.640Z,208
2017-08-24T05:46:26.643Z,202
2017-08-24T05:47:26.656Z,174
2017-08-24T05:48:26.582Z,151
2017-08-24T05:49:26.652Z,135
2017-08-24T05:50:26.558Z,135
2017-08-24T05:51:26.609Z,140
2017-08-24T05:52:26.635Z,146
2017-08-24T05:53:26.710Z,151
2017-08-24T05:54:26.707Z,163
2017-08-24T05:55:26.648Z,174
2017-08-24T05:56:26.675Z,196
2017-08-24T05:57:26.678Z,230
2017-08-24T05:58:26.712Z,230
2017-08-24T05:59:26.644Z,230
2017-08-24T06:00:26.733Z,236
2017-08-24T06:01:26.694Z,247
2017-08-24T06:02:26.686Z,264
2017-08-24T06:03:26.635Z,270
2017-08-24T06:04:26.680Z,258
2017-08-24T06:05:26.676Z,253
2017-08-24T06:06:26.690Z,258
2017-08-24T06:07:26.626Z,264
2017-08-24T06:08:26.646Z,247
2017-08-24T06:09:26.680Z,225
2017-08-24T06:10:26.633Z,219
2017-08-24T06:11:26.725Z,230
2017-08-24T06:12:26.681Z,253
2017-08-24T06:13:26.658Z,258
2017-08-24T06:14:26.661Z,275
2017-08-24T06:15:26.684Z,286
2017-08-24T06:16:26.660Z,309
2017-08-24T06:17:26.718Z,326
2017-08-24T06:18:26.725Z,320
2017-08-24T06:19:26.729Z,315
2017-08-24T06:20:26.660Z,360
2017-08-24T06:21:26.757Z,393
2017-08-24T06:22:26.659Z,405
2017-08-24T06:23:26.655Z,399
2017-08-24T06:24:26.689Z,393
2017-08-24T06:25:26.695Z,444
2017-08-24T06:26:26.657Z,483
2017-08-24T06:27:26.697Z,478
2017-08-24T06:28:26.662Z,478
2017-08-24T06:29:26.663Z,455
2017-08-24T06:30:26.699Z,461
2017-08-24T06:31:26.728Z,450
2017-08-24T06:32:26.669Z,421
2017-08-24T06:33:26.871Z,405
2017-08-24T06:34:26.672Z,365
2017-08-24T06:35:26.647Z,315
2017-08-24T06:36:26.651Z,309
2017-08-24T06:37:26.700Z,331
2017-08-24T06:38:26.701Z,326
2017-08-24T06:39:26.745Z,320
2017-08-24T06:40:26.651Z,315
2017-08-24T06:41:26.684Z,309
2017-08-24T06:42:26.768Z,298
2017-08-24T06:43:26.739Z,264
2017-08-24T06:44:26.682Z,253
2017-08-24T06:45:26.708Z,236
2017-08-24T06:46:26.788Z,225
2017-08-24T06:47:26.687Z,225
2017-08-24T06:48:26.686Z,253
2017-08-24T06:49:26.759Z,298
2017-08-24T06:50:26.688Z,292
2017-08-24T06:51:26.713Z,281
2017-08-24T06:52:26.697Z,270
2017-08-24T06:53:26.695Z,264
2017-08-24T06:54:26.700Z,258
2017-08-24T06:55:26.759Z,264
2017-08-24T06:56:26.668Z,264
2017-08-24T06:57:26.704Z,264
2017-08-24T06:58:26.712Z,286
2017-08-24T06:59:26.708Z,320
2017-08-24T07:00:26.662Z,354
2017-08-24T07:01:26.687Z,388
2017-08-24T07:02:26.728Z,421
2017-08-24T07:03:26.787Z,455
2017-08-24T07:04:26.703Z,489
2017-08-24T07:05:26.781Z,506
2017-08-24T07:06:26.731Z,500
2017-08-24T07:07:26.731Z,472
2017-08-24T07:08:26.735Z,450
2017-08-24T07:09:26.695Z,450
2017-08-24T07:10:26.699Z,483
2017-08-24T07:11:26.771Z,517
2017-08-24T07:12:26.681Z,523
2017-08-24T07:13:26.754Z,528
2017-08-24T07:14:26.720Z,534
2017-08-24T07:15:26.758Z,511
2017-08-24T07:16:26.722Z,523
2017-08-24T07:17:26.755Z,517
2017-08-24T07:18:26.730Z,483
2017-08-24T07:19:26.698Z,416
2017-08-24T07:20:26.694Z,399
2017-08-24T07:21:26.726Z,399
2017-08-24T07:22:26.764Z,393
2017-08-24T07:23:26.740Z,450
2017-08-24T07:24:26.761Z,523
2017-08-24T07:25:26.773Z,517
2017-08-24T07:26:26.767Z,483
2017-08-24T07:27:26.804Z,427
2017-08-24T07:28:26.748Z,393
2017-08-24T07:29:26.738Z,388
2017-08-24T07:30:26.773Z,433
2017-08-24T07:31:26.713Z,500
2017-08-24T07:32:26.774Z,478
2017-08-24T07:33:26.766Z,455
2017-08-24T07:34:26.733Z,511
2017-08-24T07:35:26.743Z,551
2017-08-24T07:36:26.708Z,607
2017-08-24T07:37:26.771Z,663
2017-08-24T07:38:26.703Z,646
2017-08-24T07:39:26.710Z,523
2017-08-24T07:40:26.738Z,405
2017-08-24T07:41:26.736Z,360
2017-08-24T07:42:26.771Z,331
2017-08-24T07:43:26.719Z,303
2017-08-24T07:44:26.737Z,281
2017-08-24T07:45:26.733Z,258
2017-08-24T07:46:26.700Z,236
2017-08-24T07:47:26.721Z,230
2017-08-24T07:48:26.732Z,241
2017-08-24T07:49:26.748Z,241
2017-08-24T07:50:26.748Z,247
2017-08-24T07:51:26.745Z,270
2017-08-24T07:52:26.720Z,303
2017-08-24T07:53:26.756Z,337
2017-08-24T07:54:26.727Z,360
2017-08-24T07:55:26.814Z,343
2017-08-24T07:56:26.793Z,348
2017-08-24T07:57:26.794Z,376
2017-08-24T07:58:26.766Z,450
2017-08-24T07:59:26.733Z,551
2017-08-24T08:00:26.801Z,646
2017-08-24T08:01:26.728Z,787
2017-08-24T08:02:26.792Z,945
2017-08-24T08:03:26.795Z,978
2017-08-24T08:04:26.793Z,911
2017-08-24T08:05:26.801Z,877
2017-08-24T08:06:26.762Z,888
2017-08-24T08:07:26.768Z,810
2017-08-24T08:08:26.739Z,736
2017-08-24T08:09:26.733Z,703
2017-08-24T08:10:26.824Z,765
2017-08-24T08:11:26.804Z,832
2017-08-24T08:12:26.732Z,776
2017-08-24T08:13:26.736Z,680
2017-08-24T08:14:26.776Z,635
2017-08-24T08:15:26.832Z,618
2017-08-24T08:16:26.803Z,618
2017-08-24T08:17:26.824Z,601
2017-08-24T08:18:26.747Z,635
2017-08-24T08:19:26.836Z,697
2017-08-24T08:20:26.774Z,714
2017-08-24T08:21:26.776Z,748
2017-08-24T08:22:26.738Z,911
2017-08-24T08:23:26.744Z,1153
2017-08-24T08:24:26.775Z,1456
2017-08-24T08:25:26.743Z,1755
2017-08-24T08:26:26.746Z,1929
2017-08-24T08:27:26.780Z,1985
2017-08-24T08:28:26.780Z,2148
2017-08-24T08:29:26.816Z,2430
2017-08-24T08:30:26.777Z,2379
2017-08-24T08:31:26.744Z,2441
2017-08-24T08:32:26.770Z,1586
2017-08-24T08:33:26.735Z,1569
2017-08-24T08:34:26.799Z,1704
2017-08-24T08:35:26.764Z,1918
2017-08-24T08:36:26.805Z,2221
2017-08-24T08:37:26.780Z,3493
2017-08-24T08:38:26.733Z,3661
2017-08-24T08:39:26.734Z,3296
2017-08-24T08:40:26.801Z,3566
2017-08-24T08:41:26.804Z,2851
2017-08-24T08:42:26.804Z,3054
2017-08-24T08:43:26.784Z,3031
2017-08-24T08:44:26.812Z,2846
2017-08-24T08:45:26.828Z,2458
2017-08-24T08:46:26.752Z,2255
2017-08-24T08:47:26.812Z,2041
2017-08-24T08:48:26.815Z,1856
2017-08-24T08:49:26.750Z,1687
2017-08-24T08:50:26.753Z,1513
2017-08-24T08:51:26.782Z,1468
2017-08-24T08:52:26.784Z,1524
2017-08-24T08:53:26.766Z,1558
2017-08-24T08:54:26.787Z,1490
2017-08-24T08:55:26.782Z,1395
2017-08-24T08:56:26.734Z,1271
2017-08-24T08:57:26.769Z,1198
2017-08-24T08:58:26.904Z,1192
2017-08-24T08:59:26.773Z,1215
2017-08-24T09:00:26.776Z,1209
2017-08-24T09:01:26.773Z,1260
2017-08-24T09:02:26.784Z,1378
2017-08-24T09:03:26.788Z,1496
2017-08-24T09:04:26.827Z,1563
2017-08-24T09:05:26.830Z,1608
2017-08-24T09:06:26.789Z,1659
2017-08-24T09:07:26.800Z,1715
2017-08-24T09:08:26.783Z,1833
2017-08-24T09:09:26.767Z,1940
2017-08-24T09:10:26.779Z,1901
2017-08-24T09:11:26.764Z,1732
2017-08-24T09:12:26.798Z,1648
2017-08-24T09:13:26.835Z,1653
2017-08-24T09:14:26.764Z,1760
2017-08-24T09:15:26.767Z,1895
2017-08-24T09:16:26.776Z,1996
2017-08-24T09:17:26.761Z,2030
2017-08-24T09:18:26.766Z,2008
2017-08-24T09:19:26.770Z,1946
2017-08-24T09:20:26.794Z,1946
2017-08-24T09:21:26.835Z,1935
2017-08-24T09:22:26.768Z,1935
2017-08-24T09:23:26.866Z,1951
2017-08-24T09:24:26.815Z,1963
2017-08-24T09:25:26.777Z,1957
2017-08-24T09:26:26.850Z,1951
2017-08-24T09:27:26.869Z,1957
2017-08-24T09:28:26.816Z,1996
2017-08-24T09:29:26.780Z,2058
2017-08-24T09:30:26.816Z,2131
2017-08-24T09:31:26.789Z,2193
2017-08-24T09:32:26.871Z,2250
2017-08-24T09:33:26.785Z,2272
2017-08-24T09:34:26.758Z,2272
2017-08-24T09:35:26.809Z,2227
2017-08-24T09:36:26.781Z,2216
2017-08-24T09:37:26.806Z,2266
2017-08-24T09:38:26.785Z,2379
2017-08-24T09:39:26.817Z,2486
2017-08-24T09:40:26.766Z,2531
2017-08-24T09:41:26.819Z,2581
2017-08-24T09:42:26.770Z,2688
2017-08-24T09:43:26.838Z,2626
2017-08-24T09:44:26.838Z,2480
2017-08-24T09:45:26.781Z,2379
2017-08-24T09:46:26.788Z,2216
2017-08-24T09:47:26.802Z,1963
2017-08-24T09:48:26.804Z,1816
2017-08-24T09:49:26.776Z,1642
2017-08-24T09:50:26.732Z,1485
2017-08-24T09:51:26.802Z,1423
2017-08-24T09:52:26.770Z,1350
2017-08-24T09:53:26.832Z,1260
2017-08-24T09:54:26.884Z,1170
2017-08-24T09:55:26.853Z,1130
2017-08-24T09:56:26.801Z,1181
2017-08-24T09:57:26.871Z,1198
2017-08-24T09:58:26.829Z,1074
2017-08-24T09:59:26.835Z,984
2017-08-24T10:00:26.798Z,961
2017-08-24T10:01:26.888Z,1012
2017-08-24T10:02:26.825Z,1029
2017-08-24T10:03:26.826Z,1040
2017-08-24T10:04:26.830Z,1080
2017-08-24T10:05:26.855Z,1074
2017-08-24T10:06:26.863Z,1057
2017-08-24T10:07:26.841Z,1029
2017-08-24T10:08:26.868Z,1035
2017-08-24T10:09:26.841Z,1203
2017-08-24T10:10:26.899Z,1473
2017-08-24T10:11:26.837Z,1608
2017-08-24T10:12:26.901Z,1563
2017-08-24T10:13:26.803Z,1530
2017-08-24T10:14:26.800Z,1490
2017-08-24T10:15:26.828Z,1451
2017-08-24T10:16:26.873Z,1518
2017-08-24T10:17:26.867Z,1749
2017-08-24T10:18:26.799Z,2193
2017-08-24T10:19:26.801Z,3341
2017-08-24T10:20:26.922Z,4393
2017-08-24T10:21:26.801Z,3003
2017-08-24T10:22:26.867Z,2778
2017-08-24T10:23:26.909Z,3251
2017-08-24T10:24:26.814Z,3273
2017-08-24T10:25:26.819Z,3971
2017-08-24T10:26:26.848Z,3622
2017-08-24T10:27:26.841Z,3898
2017-08-24T10:28:26.861Z,3031
2017-08-24T10:29:27.013Z,3031
2017-08-24T10:30:26.890Z,4426
2017-08-24T10:31:26.905Z,3127
2017-08-24T10:32:26.910Z,2626
2017-08-24T10:33:26.918Z,2413
2017-08-24T10:34:26.848Z,2317
2017-08-24T10:35:26.855Z,2041
2017-08-24T10:36:26.822Z,1991
2017-08-24T10:37:26.859Z,2171
2017-08-24T10:38:26.853Z,4201
2017-08-24T10:39:26.888Z,4055
2017-08-24T10:40:26.885Z,3605
2017-08-24T10:41:26.852Z,4702
2017-08-24T10:42:26.829Z,4190
2017-08-24T10:43:26.910Z,3712
2017-08-24T10:44:26.800Z,1890
2017-08-24T10:45:26.770Z,1631
2017-08-24T10:46:26.825Z,1676
2017-08-24T10:47:26.855Z,1850
2017-08-24T10:48:26.724Z,1991
2017-08-24T10:49:26.767Z,1980
2017-08-24T10:50:26.728Z,2047
2017-08-24T10:51:26.771Z,2244
2017-08-24T10:52:26.720Z,2745
2017-08-24T10:53:26.773Z,2970
2017-08-24T10:54:26.828Z,2565
2017-08-24T10:55:26.925Z,2418
2017-08-24T10:56:26.883Z,2300
2017-08-24T10:57:26.935Z,2300
2017-08-24T10:58:26.869Z,1974
2017-08-24T10:59:26.907Z,1890
2017-08-24T11:00:26.898Z,1755
2017-08-24T11:01:26.900Z,1681
2017-08-24T11:02:26.876Z,1659
2017-08-24T11:03:26.933Z,1755
2017-08-24T11:04:26.934Z,2233
2017-08-24T11:05:26.871Z,2154
2017-08-24T11:06:26.857Z,2041
2017-08-24T11:07:26.841Z,1873
2017-08-24T11:08:26.872Z,1890
2017-08-24T11:09:26.913Z,2036
2017-08-24T11:10:26.843Z,2261
2017-08-24T11:11:26.915Z,5079
2017-08-24T11:12:26.841Z,5096
2017-08-24T11:13:26.867Z,5085
2017-08-24T11:14:26.870Z,4888
2017-08-24T11:15:26.906Z,2626
2017-08-24T11:16:26.847Z,4809
2017-08-24T11:17:26.894Z,4837
2017-08-24T11:18:26.867Z,4668
2017-08-24T11:19:26.936Z,5343
2017-08-24T11:20:26.880Z,5355
2017-08-24T11:21:26.914Z,5411
2017-08-24T11:22:26.847Z,5248
2017-08-24T11:23:27.031Z,2058
2017-08-24T11:24:26.937Z,4635
2017-08-24T11:25:26.873Z,5394
2017-08-24T11:26:26.887Z,5293
2017-08-24T11:27:26.879Z,3138
2017-08-24T11:28:26.887Z,2154
2017-08-24T11:29:26.940Z,2193
2017-08-24T11:30:26.953Z,2160
2017-08-24T11:31:26.849Z,2160
2017-08-24T11:32:26.860Z,2233
2017-08-24T11:33:26.885Z,2604
2017-08-24T11:34:26.879Z,3285
2017-08-24T11:35:26.955Z,2953
2017-08-24T11:36:26.893Z,3138
2017-08-24T11:37:26.943Z,2407
2017-08-24T11:38:26.892Z,2896
2017-08-24T11:39:26.894Z,3037
2017-08-24T11:40:26.913Z,3588
2017-08-24T11:41:26.894Z,2604
2017-08-24T11:42:26.899Z,2818
2017-08-24T11:43:26.858Z,2621
2017-08-24T11:44:26.878Z,4421
2017-08-24T11:45:26.923Z,3346
2017-08-24T11:46:27.044Z,4680
2017-08-24T11:47:26.937Z,3802
2017-08-24T11:48:26.936Z,3915
2017-08-24T11:49:26.903Z,2863
2017-08-24T11:50:26.918Z,2671
2017-08-24T11:51:26.896Z,2688
2017-08-24T11:52:26.885Z,2401
2017-08-24T11:53:26.931Z,3892
2017-08-24T11:54:26.898Z,2328
2017-08-24T11:55:26.870Z,3841
2017-08-24T11:56:26.954Z,5315
2017-08-24T11:57:26.895Z,5506
2017-08-24T11:58:26.887Z,5664
2017-08-24T11:59:26.938Z,5653
2017-08-24T12:00:26.901Z,5518
2017-08-24T12:01:26.928Z,5461
2017-08-24T12:02:26.897Z,5321
2017-08-24T12:03:26.893Z,5023
2017-08-24T12:04:26.886Z,5242
2017-08-24T12:05:26.810Z,5090
2017-08-24T12:06:26.870Z,5456
2017-08-24T12:07:26.888Z,5574
2017-08-24T12:08:26.884Z,5608
2017-08-24T12:09:26.888Z,5355
2017-08-24T12:10:26.874Z,5265
2017-08-24T12:11:26.817Z,5343
2017-08-24T12:12:26.873Z,5366
2017-08-24T12:13:26.831Z,5315
2017-08-24T12:14:26.873Z,5293
2017-08-24T12:15:26.843Z,5293
2017-08-24T12:16:26.893Z,5304
2017-08-24T12:17:26.892Z,5281
2017-08-24T12:18:26.853Z,5152
2017-08-24T12:19:26.852Z,2576
2017-08-24T12:20:26.945Z,5062
2017-08-24T12:21:26.851Z,5040
2017-08-24T12:22:26.891Z,5090
2017-08-24T12:23:27.022Z,5051
2017-08-24T12:24:26.873Z,5051
2017-08-24T12:25:26.933Z,5023
2017-08-24T12:26:26.943Z,4989
2017-08-24T12:27:26.875Z,4983
2017-08-24T12:28:26.875Z,4944
2017-08-24T12:29:26.877Z,4826
2017-08-24T12:30:26.903Z,4820
2017-08-24T12:31:26.939Z,4798
2017-08-24T12:32:26.877Z,4843
2017-08-24T12:33:26.964Z,4764
2017-08-24T12:34:26.893Z,4736
2017-08-24T12:35:26.887Z,4674
2017-08-24T12:36:26.908Z,4674
2017-08-24T12:37:26.975Z,4702
2017-08-24T12:38:26.897Z,4680
2017-08-24T12:39:26.941Z,4725
2017-08-24T12:40:26.923Z,4792
2017-08-24T12:41:26.983Z,4646
2017-08-24T12:42:26.895Z,4404
2017-08-24T12:43:26.963Z,4471
2017-08-24T12:44:26.950Z,4657
2017-08-24T12:45:26.932Z,4573
2017-08-24T12:46:26.933Z,4460
2017-08-24T12:47:26.995Z,4567
2017-08-24T12:48:26.918Z,4449
2017-08-24T12:49:26.923Z,4331
2017-08-24T12:50:26.932Z,4325
2017-08-24T12:51:26.905Z,4365
2017-08-24T12:52:26.953Z,2435
2017-08-24T12:53:26.930Z,2193
2017-08-24T12:54:26.923Z,2283
2017-08-24T12:55:26.894Z,2092
2017-08-24T12:56:26.925Z,2053
2017-08-24T12:57:26.972Z,2098
2017-08-24T12:58:26.965Z,3549
2017-08-24T12:59:26.965Z,2638
2017-08-24T13:00:26.855Z,4089
2017-08-24T13:01:26.899Z,4370
2017-08-24T13:02:26.976Z,4359
2017-08-24T13:03:26.912Z,4342
2017-08-24T13:04:26.902Z,4342
2017-08-24T13:05:26.901Z,4218
2017-08-24T13:06:27.005Z,4140
2017-08-24T13:07:26.909Z,4156
2017-08-24T13:08:26.968Z,3026
2017-08-24T13:09:26.937Z,2638
2017-08-24T13:10:26.934Z,3645
2017-08-24T13:11:26.905Z,2373
2017-08-24T13:12:26.970Z,3841
2017-08-24T13:13:26.998Z,4196
2017-08-24T13:14:26.975Z,4263
2017-08-24T13:15:26.936Z,4089
2017-08-24T13:16:26.988Z,4325
2017-08-24T13:17:26.936Z,4291
2017-08-24T13:18:26.935Z,4241
2017-08-24T13:19:26.971Z,4230
2017-08-24T13:20:26.933Z,4089
2017-08-24T13:21:26.906Z,4235
2017-08-24T13:22:26.971Z,4123
2017-08-24T13:23:26.912Z,4179
2017-08-24T13:24:26.976Z,4151
2017-08-24T13:25:26.915Z,4140
2017-08-24T13:26:26.904Z,4140
2017-08-24T13:27:26.908Z,4308
2017-08-24T13:28:26.912Z,4303
2017-08-24T13:29:26.939Z,4066
2017-08-24T13:30:26.914Z,4095
2017-08-24T13:31:26.972Z,4235
2017-08-24T13:32:26.919Z,4168
2017-08-24T13:33:26.979Z,4173
2017-08-24T13:34:27.004Z,4162
2017-08-24T13:35:26.989Z,4162
2017-08-24T13:36:26.979Z,4117
2017-08-24T13:37:26.950Z,3971
2017-08-24T13:38:26.926Z,2401
2017-08-24T13:39:26.950Z,2255
2017-08-24T13:40:27.017Z,2109
2017-08-24T13:41:26.957Z,2075
2017-08-24T13:42:27.112Z,3532
2017-08-24T13:43:27.008Z,3785
2017-08-24T13:44:27.025Z,3870
2017-08-24T13:45:26.961Z,3802
2017-08-24T13:46:26.991Z,3819
2017-08-24T13:47:27.003Z,3740
2017-08-24T13:48:26.932Z,3723
2017-08-24T13:49:26.933Z,3639
2017-08-24T13:50:26.971Z,2542
2017-08-24T13:51:26.968Z,3639
2017-08-24T13:52:26.973Z,3605
2017-08-24T13:53:26.959Z,3639
2017-08-24T13:54:26.934Z,3605